Kvitbjoern — LM9158 — position and weather

sailwx.info

Track history (hours):
 
Tides and Currents Weather Stations Pressure Air Temp Water Temp Dewpoint Dewpoint Depression Visibility Wind Speed Wind Dir Waves Ship Positions

Kvitbjoern

Last reported at 2016-May-24 20:30 UTC. Time now 2016-May-25 11:05 UTC.
Position N 66°22' E 012°21'.

Length 10 m.

Type: Fishing. MMSI: 257454420.

Date/timePositionNaut miles runAvg speedWind from/ knotsBaromVisibWave heightAir tempDewpointWater temp
2016-May-24 20:30N 66°22' E 012°21'3 2.9
2016-May-24 19:32N 66°19' E 012°22'1 0.2
2016-May-24 15:22N 66°20' E 012°20'2 2.2
2016-May-24 14:17N 66°22' E 012°21'0 0.0
2016-May-24 13:29N 66°22' E 012°21'0 0.0
2016-May-23 13:13N 66°22' E 012°21'0 0.0
2016-May-23 12:31N 66°22' E 012°21'3 3.5
2016-May-23 11:33N 66°24' E 012°29'2 1.0
2016-May-23 09:31N 66°24' E 012°34'5 5.1
2016-May-23 08:31N 66°22' E 012°21'0 0.0
2016-May-22 22:33N 66°22' E 012°21'2 1.6
2016-May-22 21:29N 66°24' E 012°24'1 0.8
2016-May-22 20:08N 66°25' E 012°23'1 1.0
2016-May-22 19:31N 66°24' E 012°21'0 0.4
2016-May-22 18:31N 66°25' E 012°21'1 0.9
2016-May-22 17:19N 66°26' E 012°21'1 0.4
2016-May-22 15:20N 66°26' E 012°20'0 0.3
2016-May-22 14:32N 66°27' E 012°19'1 1.5
2016-May-22 13:33N 66°26' E 012°22'1 1.3
2016-May-22 12:32N 66°25' E 012°25'0 0.5
2016-May-22 11:33N 66°25' E 012°26'3 0.2
2016-May-21 21:32N 66°22' E 012°21'0 0.0
2016-May-21 20:33N 66°22' E 012°21'4 3.5
2016-May-21 19:33N 66°26' E 012°20'0 0.1
2016-May-21 18:33N 66°26' E 012°20'0 0.1
2016-May-21 17:33N 66°26' E 012°20'2 1.6
2016-May-21 16:34N 66°25' E 012°23'1 1.3
2016-May-21 15:33N 66°25' E 012°26'3 2.9
2016-May-21 14:23N 66°22' E 012°21'0 0.0
2016-May-20 17:05N 66°22' E 012°21'0 0.0
2016-May-20 16:29N 66°22' E 012°21'0 0.0
2016-May-20 15:32N 66°22' E 012°21'6 5.5
2016-May-20 14:29N 66°23' E 012°35'0 0.3
2016-May-20 13:25N 66°23' E 012°35'5 5.5
2016-May-20 12:32N 66°24' E 012°22'2 1.8
2016-May-20 11:33N 66°23' E 012°18'1 0.7
2016-May-20 10:31N 66°23' E 012°16'0 0.4
2016-May-20 09:32N 66°23' E 012°15'2 1.7
2016-May-20 08:33N 66°25' E 012°14'3 0.3
2016-May-20 00:25N 66°22' E 012°13'3 3.6
2016-May-19 23:33N 66°23' E 012°20'1 0.1
2016-May-19 15:28N 66°22' E 012°21'3 2.8
2016-May-19 14:33N 66°23' E 012°15'2 1.6
2016-May-19 13:33N 66°25' E 012°14'2 0.4
2016-May-19 09:15N 66°24' E 012°10'0 0.4
2016-May-19 08:26N 66°23' E 012°10'4 1.3
2016-May-19 05:33N 66°22' E 012°18'1 1.1
2016-May-19 04:31N 66°22' E 012°21'0 0.0
2016-May-18 13:24N 66°22' E 012°21'0 0.0
2016-May-18 12:30N 66°22' E 012°21'0 0.0
2016-May-18 11:30N 66°22' E 012°21'0 0.0
2016-May-18 10:30N 66°22' E 012°21'0 0.0
2016-May-18 09:30N 66°22' E 012°21'0 0.0
2016-May-18 08:30N 66°22' E 012°21'  
Track history (hours):
 
Tides and Currents Weather Stations Pressure Air Temp Water Temp Dewpoint Dewpoint Depression Visibility Wind Speed Wind Dir Waves Ship Positions

Kvitbjoern

Last reported at 2016-May-24 20:30 UTC. Time now 2016-May-25 11:05 UTC.
Position N 66°22' E 012°21'.

Length 10 m.

Type: Fishing. MMSI: 257454420.

Date/timePositionNaut miles runAvg speedWind from/ knotsBaromVisibWave heightAir tempDewpointWater temp
2016-May-24 20:30N 66°22' E 012°21'3 2.9
2016-May-24 19:32N 66°19' E 012°22'1 0.2
2016-May-24 15:22N 66°20' E 012°20'2 2.2
2016-May-24 14:17N 66°22' E 012°21'0 0.0
2016-May-24 13:29N 66°22' E 012°21'0 0.0
2016-May-23 13:13N 66°22' E 012°21'0 0.0
2016-May-23 12:31N 66°22' E 012°21'3 3.5
2016-May-23 11:33N 66°24' E 012°29'2 1.0
2016-May-23 09:31N 66°24' E 012°34'5 5.1
2016-May-23 08:31N 66°22' E 012°21'0 0.0
2016-May-22 22:33N 66°22' E 012°21'2 1.6
2016-May-22 21:29N 66°24' E 012°24'1 0.8
2016-May-22 20:08N 66°25' E 012°23'1 1.0
2016-May-22 19:31N 66°24' E 012°21'0 0.4
2016-May-22 18:31N 66°25' E 012°21'1 0.9
2016-May-22 17:19N 66°26' E 012°21'1 0.4
2016-May-22 15:20N 66°26' E 012°20'0 0.3
2016-May-22 14:32N 66°27' E 012°19'1 1.5
2016-May-22 13:33N 66°26' E 012°22'1 1.3
2016-May-22 12:32N 66°25' E 012°25'0 0.5
2016-May-22 11:33N 66°25' E 012°26'3 0.2
2016-May-21 21:32N 66°22' E 012°21'0 0.0
2016-May-21 20:33N 66°22' E 012°21'4 3.5
2016-May-21 19:33N 66°26' E 012°20'0 0.1
2016-May-21 18:33N 66°26' E 012°20'0 0.1
2016-May-21 17:33N 66°26' E 012°20'2 1.6
2016-May-21 16:34N 66°25' E 012°23'1 1.3
2016-May-21 15:33N 66°25' E 012°26'3 2.9
2016-May-21 14:23N 66°22' E 012°21'0 0.0
2016-May-20 17:05N 66°22' E 012°21'0 0.0
2016-May-20 16:29N 66°22' E 012°21'0 0.0
2016-May-20 15:32N 66°22' E 012°21'6 5.5
2016-May-20 14:29N 66°23' E 012°35'0 0.3
2016-May-20 13:25N 66°23' E 012°35'5 5.5
2016-May-20 12:32N 66°24' E 012°22'2 1.8
2016-May-20 11:33N 66°23' E 012°18'1 0.7
2016-May-20 10:31N 66°23' E 012°16'0 0.4
2016-May-20 09:32N 66°23' E 012°15'2 1.7
2016-May-20 08:33N 66°25' E 012°14'3 0.3
2016-May-20 00:25N 66°22' E 012°13'3 3.6
2016-May-19 23:33N 66°23' E 012°20'1 0.1
2016-May-19 15:28N 66°22' E 012°21'3 2.8
2016-May-19 14:33N 66°23' E 012°15'2 1.6
2016-May-19 13:33N 66°25' E 012°14'2 0.4
2016-May-19 09:15N 66°24' E 012°10'0 0.4
2016-May-19 08:26N 66°23' E 012°10'4 1.3
2016-May-19 05:33N 66°22' E 012°18'1 1.1
2016-May-19 04:31N 66°22' E 012°21'0 0.0
2016-May-18 13:24N 66°22' E 012°21'0 0.0
2016-May-18 12:30N 66°22' E 012°21'0 0.0
2016-May-18 11:30N 66°22' E 012°21'0 0.0
2016-May-18 10:30N 66°22' E 012°21'0 0.0
2016-May-18 09:30N 66°22' E 012°21'0 0.0
2016-May-18 08:30N 66°22' E 012°21'  

Dump ship's entire track history